sensor_id;sensor_type;location;lat;lon;timestamp;P1;durP1;ratioP1;P2;durP2;ratioP2
25435;SDS011;13363;52.772;-3.890;2023-10-09T00:01:13;7.70;;;4.07;;
25435;SDS011;13363;52.772;-3.890;2023-10-09T00:03:42;4.90;;;3.77;;
25435;SDS011;13363;52.772;-3.890;2023-10-09T00:06:08;6.37;;;4.00;;
25435;SDS011;13363;52.772;-3.890;2023-10-09T00:08:38;6.50;;;4.07;;
25435;SDS011;13363;52.772;-3.890;2023-10-09T00:11:16;4.57;;;3.47;;
25435;SDS011;13363;52.772;-3.890;2023-10-09T00:13:43;5.63;;;3.80;;
25435;SDS011;13363;52.772;-3.890;2023-10-09T00:16:23;4.10;;;3.70;;
25435;SDS011;13363;52.772;-3.890;2023-10-09T00:18:59;4.80;;;3.73;;
25435;SDS011;13363;52.772;-3.890;2023-10-09T00:21:39;3.50;;;3.20;;
25435;SDS011;13363;52.772;-3.890;2023-10-09T00:24:05;5.80;;;3.47;;
25435;SDS011;13363;52.772;-3.890;2023-10-09T00:26:39;4.53;;;3.60;;
25435;SDS011;13363;52.772;-3.890;2023-10-09T00:29:09;6.90;;;3.73;;
25435;SDS011;13363;52.772;-3.890;2023-10-09T00:31:47;4.70;;;3.67;;
25435;SDS011;13363;52.772;-3.890;2023-10-09T00:34:20;4.73;;;3.50;;
25435;SDS011;13363;52.772;-3.890;2023-10-09T00:36:47;5.47;;;3.87;;
25435;SDS011;13363;52.772;-3.890;2023-10-09T00:39:19;7.07;;;3.30;;
25435;SDS011;13363;52.772;-3.890;2023-10-09T00:42:01;6.30;;;3.30;;
25435;SDS011;13363;52.772;-3.890;2023-10-09T00:44:28;6.13;;;4.03;;
25435;SDS011;13363;52.772;-3.890;2023-10-09T00:47:05;3.87;;;3.50;;
25435;SDS011;13363;52.772;-3.890;2023-10-09T00:49:48;3.93;;;3.53;;
25435;SDS011;13363;52.772;-3.890;2023-10-09T00:52:15;4.03;;;3.13;;
25435;SDS011;13363;52.772;-3.890;2023-10-09T00:54:56;5.70;;;3.50;;
25435;SDS011;13363;52.772;-3.890;2023-10-09T00:57:26;5.93;;;3.57;;
25435;SDS011;13363;52.772;-3.890;2023-10-09T00:59:54;3.77;;;2.90;;
25435;SDS011;13363;52.772;-3.890;2023-10-09T01:02:27;4.40;;;3.83;;
25435;SDS011;13363;52.772;-3.890;2023-10-09T01:05:07;5.40;;;3.70;;
25435;SDS011;13363;52.772;-3.890;2023-10-09T01:07:43;3.70;;;3.20;;
25435;SDS011;13363;52.772;-3.890;2023-10-09T01:10:11;5.83;;;3.30;;
25435;SDS011;13363;52.772;-3.890;2023-10-09T01:12:41;4.70;;;3.50;;
25435;SDS011;13363;52.772;-3.890;2023-10-09T01:15:09;5.07;;;3.23;;
25435;SDS011;13363;52.772;-3.890;2023-10-09T01:17:56;5.63;;;3.40;;
25435;SDS011;13363;52.772;-3.890;2023-10-09T01:20:24;3.07;;;2.87;;
25435;SDS011;13363;52.772;-3.890;2023-10-09T01:22:55;6.87;;;4.03;;
25435;SDS011;13363;52.772;-3.890;2023-10-09T01:25:21;4.03;;;3.20;;
25435;SDS011;13363;52.772;-3.890;2023-10-09T01:27:47;3.33;;;3.00;;
25435;SDS011;13363;52.772;-3.890;2023-10-09T01:30:14;4.73;;;3.03;;
25435;SDS011;13363;52.772;-3.890;2023-10-09T01:32:40;6.80;;;3.83;;
25435;SDS011;13363;52.772;-3.890;2023-10-09T01:35:08;4.87;;;3.20;;
25435;SDS011;13363;52.772;-3.890;2023-10-09T01:37:45;6.83;;;3.47;;
25435;SDS011;13363;52.772;-3.890;2023-10-09T01:40:14;6.13;;;3.30;;
25435;SDS011;13363;52.772;-3.890;2023-10-09T01:42:52;3.70;;;3.37;;
25435;SDS011;13363;52.772;-3.890;2023-10-09T01:45:19;3.83;;;3.57;;
25435;SDS011;13363;52.772;-3.890;2023-10-09T01:47:45;4.03;;;3.50;;
25435;SDS011;13363;52.772;-3.890;2023-10-09T01:50:18;6.77;;;3.00;;
25435;SDS011;13363;52.772;-3.890;2023-10-09T01:52:50;4.60;;;3.47;;
25435;SDS011;13363;52.772;-3.890;2023-10-09T01:55:19;5.17;;;3.00;;
25435;SDS011;13363;52.772;-3.890;2023-10-09T01:58:00;5.43;;;3.83;;
25435;SDS011;13363;52.772;-3.890;2023-10-09T02:00:31;5.27;;;3.03;;
25435;SDS011;13363;52.772;-3.890;2023-10-09T02:03:08;5.00;;;2.90;;
25435;SDS011;13363;52.772;-3.890;2023-10-09T02:05:48;4.23;;;2.93;;
25435;SDS011;13363;52.772;-3.890;2023-10-09T02:08:16;4.10;;;3.53;;
25435;SDS011;13363;52.772;-3.890;2023-10-09T02:10:47;6.30;;;3.37;;
25435;SDS011;13363;52.772;-3.890;2023-10-09T02:13:13;4.90;;;3.13;;
25435;SDS011;13363;52.772;-3.890;2023-10-09T02:15:42;3.83;;;3.30;;
25435;SDS011;13363;52.772;-3.890;2023-10-09T02:18:09;4.83;;;3.10;;
25435;SDS011;13363;52.772;-3.890;2023-10-09T02:20:43;4.17;;;3.37;;
25435;SDS011;13363;52.772;-3.890;2023-10-09T02:23:11;3.53;;;3.00;;
25435;SDS011;13363;52.772;-3.890;2023-10-09T02:25:46;10.27;;;3.40;;
25435;SDS011;13363;52.772;-3.890;2023-10-09T02:28:12;3.63;;;3.23;;
25435;SDS011;13363;52.772;-3.890;2023-10-09T02:30:44;4.07;;;3.37;;
25435;SDS011;13363;52.772;-3.890;2023-10-09T02:33:15;4.90;;;3.60;;
25435;SDS011;13363;52.772;-3.890;2023-10-09T02:35:45;5.87;;;2.93;;
25435;SDS011;13363;52.772;-3.890;2023-10-09T02:38:16;4.33;;;3.13;;
25435;SDS011;13363;52.772;-3.890;2023-10-09T02:40:42;3.73;;;3.30;;
25435;SDS011;13363;52.772;-3.890;2023-10-09T02:43:31;5.10;;;3.37;;
25435;SDS011;13363;52.772;-3.890;2023-10-09T02:46:13;5.70;;;3.17;;
25435;SDS011;13363;52.772;-3.890;2023-10-09T02:48:49;5.90;;;3.63;;
25435;SDS011;13363;52.772;-3.890;2023-10-09T02:53:57;3.83;;;2.93;;
25435;SDS011;13363;52.772;-3.890;2023-10-09T02:56:23;5.53;;;3.10;;
25435;SDS011;13363;52.772;-3.890;2023-10-09T02:59:00;5.57;;;3.63;;
25435;SDS011;13363;52.772;-3.890;2023-10-09T03:01:31;4.50;;;3.57;;
25435;SDS011;13363;52.772;-3.890;2023-10-09T03:03:59;5.13;;;3.47;;
25435;SDS011;13363;52.772;-3.890;2023-10-09T03:06:27;4.87;;;3.40;;
25435;SDS011;13363;52.772;-3.890;2023-10-09T03:08:59;6.23;;;3.30;;
25435;SDS011;13363;52.772;-3.890;2023-10-09T03:11:25;7.03;;;3.93;;
25435;SDS011;13363;52.772;-3.890;2023-10-09T03:13:52;4.00;;;3.70;;
25435;SDS011;13363;52.772;-3.890;2023-10-09T03:16:20;4.90;;;3.10;;
25435;SDS011;13363;52.772;-3.890;2023-10-09T03:18:46;4.20;;;3.17;;
25435;SDS011;13363;52.772;-3.890;2023-10-09T03:21:13;4.33;;;3.47;;
25435;SDS011;13363;52.772;-3.890;2023-10-09T03:23:40;4.13;;;3.23;;
25435;SDS011;13363;52.772;-3.890;2023-10-09T03:26:06;3.13;;;2.90;;
25435;SDS011;13363;52.772;-3.890;2023-10-09T03:28:33;3.37;;;3.07;;
25435;SDS011;13363;52.772;-3.890;2023-10-09T03:31:01;4.07;;;3.13;;
25435;SDS011;13363;52.772;-3.890;2023-10-09T03:33:28;4.13;;;3.13;;
25435;SDS011;13363;52.772;-3.890;2023-10-09T03:36:01;5.10;;;3.10;;
25435;SDS011;13363;52.772;-3.890;2023-10-09T03:38:27;6.77;;;3.00;;
25435;SDS011;13363;52.772;-3.890;2023-10-09T03:41:03;3.80;;;3.37;;
25435;SDS011;13363;52.772;-3.890;2023-10-09T03:43:32;3.10;;;2.90;;
25435;SDS011;13363;52.772;-3.890;2023-10-09T03:46:02;5.83;;;3.07;;
25435;SDS011;13363;52.772;-3.890;2023-10-09T03:48:30;5.20;;;2.77;;
25435;SDS011;13363;52.772;-3.890;2023-10-09T03:51:01;4.43;;;3.03;;
25435;SDS011;13363;52.772;-3.890;2023-10-09T03:53:36;6.50;;;3.07;;
25435;SDS011;13363;52.772;-3.890;2023-10-09T03:56:07;5.50;;;3.50;;
25435;SDS011;13363;52.772;-3.890;2023-10-09T03:58:42;8.00;;;4.50;;
25435;SDS011;13363;52.772;-3.890;2023-10-09T04:01:10;8.37;;;3.97;;
25435;SDS011;13363;52.772;-3.890;2023-10-09T04:03:42;5.50;;;2.87;;
25435;SDS011;13363;52.772;-3.890;2023-10-09T04:06:10;5.37;;;3.63;;
25435;SDS011;13363;52.772;-3.890;2023-10-09T04:08:36;5.07;;;3.80;;
25435;SDS011;13363;52.772;-3.890;2023-10-09T04:11:05;7.07;;;3.50;;
25435;SDS011;13363;52.772;-3.890;2023-10-09T04:13:41;8.00;;;3.30;;
25435;SDS011;13363;52.772;-3.890;2023-10-09T04:16:11;5.30;;;3.13;;
25435;SDS011;13363;52.772;-3.890;2023-10-09T04:18:52;4.30;;;3.40;;
25435;SDS011;13363;52.772;-3.890;2023-10-09T04:21:21;3.73;;;3.43;;
25435;SDS011;13363;52.772;-3.890;2023-10-09T04:24:02;4.70;;;3.70;;
25435;SDS011;13363;52.772;-3.890;2023-10-09T04:26:38;5.53;;;3.37;;
25435;SDS011;13363;52.772;-3.890;2023-10-09T04:29:13;6.33;;;3.53;;
25435;SDS011;13363;52.772;-3.890;2023-10-09T04:31:52;3.30;;;2.90;;
25435;SDS011;13363;52.772;-3.890;2023-10-09T04:34:20;4.90;;;3.17;;
25435;SDS011;13363;52.772;-3.890;2023-10-09T04:36:47;2.83;;;2.63;;
25435;SDS011;13363;52.772;-3.890;2023-10-09T04:39:21;5.17;;;3.67;;
25435;SDS011;13363;52.772;-3.890;2023-10-09T04:41:54;5.87;;;3.57;;
25435;SDS011;13363;52.772;-3.890;2023-10-09T04:44:39;4.93;;;3.93;;
25435;SDS011;13363;52.772;-3.890;2023-10-09T04:47:16;8.17;;;3.83;;
25435;SDS011;13363;52.772;-3.890;2023-10-09T04:49:44;4.20;;;3.60;;
25435;SDS011;13363;52.772;-3.890;2023-10-09T04:52:13;5.07;;;3.20;;
25435;SDS011;13363;52.772;-3.890;2023-10-09T04:54:54;4.50;;;3.60;;
25435;SDS011;13363;52.772;-3.890;2023-10-09T05:00:08;5.80;;;4.17;;
25435;SDS011;13363;52.772;-3.890;2023-10-09T05:02:56;8.37;;;3.77;;
25435;SDS011;13363;52.772;-3.890;2023-10-09T05:05:25;7.90;;;3.83;;
25435;SDS011;13363;52.772;-3.890;2023-10-09T05:08:15;4.00;;;3.50;;
25435;SDS011;13363;52.772;-3.890;2023-10-09T05:10:51;4.10;;;3.67;;
25435;SDS011;13363;52.772;-3.890;2023-10-09T05:13:27;4.20;;;3.70;;
25435;SDS011;13363;52.772;-3.890;2023-10-09T05:18:54;4.97;;;3.37;;
25435;SDS011;13363;52.772;-3.890;2023-10-09T05:21:24;6.23;;;3.33;;
25435;SDS011;13363;52.772;-3.890;2023-10-09T05:23:57;4.37;;;3.50;;
25435;SDS011;13363;52.772;-3.890;2023-10-09T05:32:01;4.50;;;3.30;;
25435;SDS011;13363;52.772;-3.890;2023-10-09T05:34:27;4.67;;;3.50;;
25435;SDS011;13363;52.772;-3.890;2023-10-09T05:37:05;6.20;;;3.47;;
25435;SDS011;13363;52.772;-3.890;2023-10-09T05:39:53;4.63;;;3.30;;
25435;SDS011;13363;52.772;-3.890;2023-10-09T05:42:26;4.33;;;3.60;;
25435;SDS011;13363;52.772;-3.890;2023-10-09T05:45:04;5.37;;;3.23;;
25435;SDS011;13363;52.772;-3.890;2023-10-09T05:50:19;7.47;;;4.73;;
25435;SDS011;13363;52.772;-3.890;2023-10-09T05:52:59;4.40;;;3.67;;
25435;SDS011;13363;52.772;-3.890;2023-10-09T05:55:32;6.43;;;3.70;;
25435;SDS011;13363;52.772;-3.890;2023-10-09T05:58:16;5.17;;;4.20;;
25435;SDS011;13363;52.772;-3.890;2023-10-09T06:01:01;4.47;;;3.10;;
25435;SDS011;13363;52.772;-3.890;2023-10-09T06:03:30;6.63;;;3.33;;
25435;SDS011;13363;52.772;-3.890;2023-10-09T06:06:19;5.40;;;3.23;;
25435;SDS011;13363;52.772;-3.890;2023-10-09T06:09:04;4.30;;;3.23;;
25435;SDS011;13363;52.772;-3.890;2023-10-09T06:11:49;5.80;;;3.20;;
25435;SDS011;13363;52.772;-3.890;2023-10-09T06:14:20;4.20;;;3.60;;
25435;SDS011;13363;52.772;-3.890;2023-10-09T06:16:51;8.43;;;4.03;;
25435;SDS011;13363;52.772;-3.890;2023-10-09T06:19:40;6.40;;;4.50;;
25435;SDS011;13363;52.772;-3.890;2023-10-09T06:22:10;6.07;;;4.27;;
25435;SDS011;13363;52.772;-3.890;2023-10-09T06:24:55;4.20;;;3.80;;
25435;SDS011;13363;52.772;-3.890;2023-10-09T06:27:22;2.97;;;2.77;;
25435;SDS011;13363;52.772;-3.890;2023-10-09T06:29:54;5.27;;;2.93;;
25435;SDS011;13363;52.772;-3.890;2023-10-09T06:32:40;4.97;;;3.23;;
25435;SDS011;13363;52.772;-3.890;2023-10-09T06:35:33;3.77;;;3.47;;
25435;SDS011;13363;52.772;-3.890;2023-10-09T06:38:01;4.33;;;4.03;;
25435;SDS011;13363;52.772;-3.890;2023-10-09T06:40:31;3.83;;;3.47;;
25435;SDS011;13363;52.772;-3.890;2023-10-09T06:43:16;4.63;;;3.90;;
25435;SDS011;13363;52.772;-3.890;2023-10-09T06:45:45;3.87;;;3.57;;
25435;SDS011;13363;52.772;-3.890;2023-10-09T06:48:14;7.30;;;3.43;;
25435;SDS011;13363;52.772;-3.890;2023-10-09T06:51:04;5.77;;;3.37;;
25435;SDS011;13363;52.772;-3.890;2023-10-09T06:53:49;6.50;;;3.53;;
25435;SDS011;13363;52.772;-3.890;2023-10-09T06:56:18;5.03;;;3.50;;
25435;SDS011;13363;52.772;-3.890;2023-10-09T06:59:03;12.20;;;3.73;;
25435;SDS011;13363;52.772;-3.890;2023-10-09T07:01:39;5.53;;;3.80;;
25435;SDS011;13363;52.772;-3.890;2023-10-09T07:04:09;4.93;;;3.40;;
25435;SDS011;13363;52.772;-3.890;2023-10-09T07:06:46;4.03;;;3.23;;
25435;SDS011;13363;52.772;-3.890;2023-10-09T07:09:14;4.67;;;3.83;;
25435;SDS011;13363;52.772;-3.890;2023-10-09T07:11:44;5.30;;;3.73;;
25435;SDS011;13363;52.772;-3.890;2023-10-09T07:16:59;5.23;;;3.80;;
25435;SDS011;13363;52.772;-3.890;2023-10-09T07:19:29;3.70;;;3.50;;
25435;SDS011;13363;52.772;-3.890;2023-10-09T07:22:09;6.17;;;3.97;;
25435;SDS011;13363;52.772;-3.890;2023-10-09T07:24:55;4.67;;;3.17;;
25435;SDS011;13363;52.772;-3.890;2023-10-09T07:27:21;8.43;;;3.43;;
25435;SDS011;13363;52.772;-3.890;2023-10-09T07:30:07;4.63;;;4.17;;
25435;SDS011;13363;52.772;-3.890;2023-10-09T07:32:53;5.30;;;3.90;;
25435;SDS011;13363;52.772;-3.890;2023-10-09T07:35:20;4.27;;;3.37;;
25435;SDS011;13363;52.772;-3.890;2023-10-09T07:38:05;5.03;;;3.80;;
25435;SDS011;13363;52.772;-3.890;2023-10-09T07:40:34;4.33;;;3.97;;
25435;SDS011;13363;52.772;-3.890;2023-10-09T07:43:17;5.17;;;3.57;;
25435;SDS011;13363;52.772;-3.890;2023-10-09T07:45:43;5.00;;;3.87;;
25435;SDS011;13363;52.772;-3.890;2023-10-09T07:48:15;3.40;;;3.20;;
25435;SDS011;13363;52.772;-3.890;2023-10-09T07:50:41;4.93;;;3.50;;
25435;SDS011;13363;52.772;-3.890;2023-10-09T07:53:14;5.00;;;3.33;;
25435;SDS011;13363;52.772;-3.890;2023-10-09T07:55:43;10.03;;;5.37;;
25435;SDS011;13363;52.772;-3.890;2023-10-09T07:58:14;5.50;;;3.87;;
25435;SDS011;13363;52.772;-3.890;2023-10-09T08:00:41;4.77;;;3.60;;
25435;SDS011;13363;52.772;-3.890;2023-10-09T08:03:25;4.87;;;3.60;;
25435;SDS011;13363;52.772;-3.890;2023-10-09T08:05:57;4.53;;;3.87;;
25435;SDS011;13363;52.772;-3.890;2023-10-09T08:08:44;5.50;;;4.50;;
25435;SDS011;13363;52.772;-3.890;2023-10-09T08:11:30;6.37;;;4.23;;
25435;SDS011;13363;52.772;-3.890;2023-10-09T08:14:09;9.80;;;4.90;;
25435;SDS011;13363;52.772;-3.890;2023-10-09T08:16:47;4.53;;;3.80;;
25435;SDS011;13363;52.772;-3.890;2023-10-09T08:19:14;6.30;;;4.00;;
25435;SDS011;13363;52.772;-3.890;2023-10-09T08:21:59;6.30;;;4.00;;
25435;SDS011;13363;52.772;-3.890;2023-10-09T08:24:44;12.33;;;4.23;;
25435;SDS011;13363;52.772;-3.890;2023-10-09T08:27:21;5.00;;;4.17;;
25435;SDS011;13363;52.772;-3.890;2023-10-09T08:30:13;8.33;;;4.33;;
25435;SDS011;13363;52.772;-3.890;2023-10-09T08:32:43;5.90;;;4.17;;
25435;SDS011;13363;52.772;-3.890;2023-10-09T08:35:34;5.13;;;4.40;;
25435;SDS011;13363;52.772;-3.890;2023-10-09T08:38:12;7.13;;;4.07;;
25435;SDS011;13363;52.772;-3.890;2023-10-09T08:40:39;5.23;;;4.10;;
25435;SDS011;13363;52.772;-3.890;2023-10-09T08:45:37;6.50;;;4.23;;
25435;SDS011;13363;52.772;-3.890;2023-10-09T08:48:04;5.10;;;4.60;;
25435;SDS011;13363;52.772;-3.890;2023-10-09T08:50:31;4.50;;;4.10;;
25435;SDS011;13363;52.772;-3.890;2023-10-09T08:52:59;3.70;;;3.40;;
25435;SDS011;13363;52.772;-3.890;2023-10-09T08:55:26;4.07;;;3.63;;
25435;SDS011;13363;52.772;-3.890;2023-10-09T08:57:52;3.40;;;3.10;;
25435;SDS011;13363;52.772;-3.890;2023-10-09T09:00:19;3.83;;;3.13;;
25435;SDS011;13363;52.772;-3.890;2023-10-09T09:02:58;3.90;;;3.50;;
25435;SDS011;13363;52.772;-3.890;2023-10-09T09:05:25;3.27;;;2.97;;
25435;SDS011;13363;52.772;-3.890;2023-10-09T09:07:54;3.10;;;2.90;;
25435;SDS011;13363;52.772;-3.890;2023-10-09T09:10:27;3.20;;;3.00;;
25435;SDS011;13363;52.772;-3.890;2023-10-09T09:13:01;3.27;;;2.90;;
25435;SDS011;13363;52.772;-3.890;2023-10-09T09:15:29;2.50;;;2.40;;
25435;SDS011;13363;52.772;-3.890;2023-10-09T09:18:14;2.72;;;2.53;;
25435;SDS011;13363;52.772;-3.890;2023-10-09T09:20:43;2.60;;;2.40;;
25435;SDS011;13363;52.772;-3.890;2023-10-09T09:23:13;4.13;;;2.60;;
25435;SDS011;13363;52.772;-3.890;2023-10-09T09:25:43;2.30;;;2.20;;
25435;SDS011;13363;52.772;-3.890;2023-10-09T09:28:13;2.53;;;2.33;;
25435;SDS011;13363;52.772;-3.890;2023-10-09T09:30:51;2.80;;;2.60;;
25435;SDS011;13363;52.772;-3.890;2023-10-09T09:36:08;2.15;;;1.98;;
25435;SDS011;13363;52.772;-3.890;2023-10-09T09:38:37;2.28;;;2.17;;
25435;SDS011;13363;52.772;-3.890;2023-10-09T09:41:13;2.58;;;2.38;;
25435;SDS011;13363;52.772;-3.890;2023-10-09T09:43:58;2.35;;;2.22;;
25435;SDS011;13363;52.772;-3.890;2023-10-09T09:46:33;3.20;;;2.53;;
25435;SDS011;13363;52.772;-3.890;2023-10-09T09:49:00;2.17;;;2.08;;
25435;SDS011;13363;52.772;-3.890;2023-10-09T09:51:29;2.83;;;2.63;;
25435;SDS011;13363;52.772;-3.890;2023-10-09T09:53:55;3.08;;;2.88;;
25435;SDS011;13363;52.772;-3.890;2023-10-09T09:56:24;2.92;;;2.53;;
25435;SDS011;13363;52.772;-3.890;2023-10-09T09:58:51;3.03;;;2.50;;
25435;SDS011;13363;52.772;-3.890;2023-10-09T10:01:29;2.67;;;2.47;;
25435;SDS011;13363;52.772;-3.890;2023-10-09T10:04:11;2.22;;;2.13;;
25435;SDS011;13363;52.772;-3.890;2023-10-09T10:06:38;3.42;;;3.13;;
25435;SDS011;13363;52.772;-3.890;2023-10-09T10:09:07;2.50;;;2.30;;
25435;SDS011;13363;52.772;-3.890;2023-10-09T10:11:46;4.13;;;2.70;;
25435;SDS011;13363;52.772;-3.890;2023-10-09T10:14:17;3.50;;;3.05;;
25435;SDS011;13363;52.772;-3.890;2023-10-09T10:17:03;5.13;;;3.20;;
25435;SDS011;13363;52.772;-3.890;2023-10-09T10:22:30;3.83;;;3.17;;
25435;SDS011;13363;52.772;-3.890;2023-10-09T10:24:57;5.60;;;3.50;;
25435;SDS011;13363;52.772;-3.890;2023-10-09T10:27:28;5.63;;;3.70;;
25435;SDS011;13363;52.772;-3.890;2023-10-09T10:32:54;8.33;;;3.80;;
25435;SDS011;13363;52.772;-3.890;2023-10-09T10:35:23;3.27;;;3.07;;
25435;SDS011;13363;52.772;-3.890;2023-10-09T10:41:14;3.73;;;3.13;;
25435;SDS011;13363;52.772;-3.890;2023-10-09T10:43:44;3.80;;;2.30;;
25435;SDS011;13363;52.772;-3.890;2023-10-09T10:46:17;3.22;;;2.58;;
25435;SDS011;13363;52.772;-3.890;2023-10-09T10:48:50;2.78;;;2.50;;
25435;SDS011;13363;52.772;-3.890;2023-10-09T10:51:35;2.33;;;2.20;;
25435;SDS011;13363;52.772;-3.890;2023-10-09T10:54:05;2.67;;;2.00;;
25435;SDS011;13363;52.772;-3.890;2023-10-09T10:56:50;2.50;;;2.30;;
25435;SDS011;13363;52.772;-3.890;2023-10-09T10:59:17;2.67;;;2.47;;
25435;SDS011;13363;52.772;-3.890;2023-10-09T11:01:52;4.07;;;2.47;;
25435;SDS011;13363;52.772;-3.890;2023-10-09T11:04:24;2.50;;;2.30;;
25435;SDS011;13363;52.772;-3.890;2023-10-09T11:07:09;3.15;;;2.88;;
25435;SDS011;13363;52.772;-3.890;2023-10-09T11:12:28;3.63;;;2.35;;
25435;SDS011;13363;52.772;-3.890;2023-10-09T11:15:08;3.70;;;2.40;;
25435;SDS011;13363;52.772;-3.890;2023-10-09T11:18:04;3.30;;;2.65;;
25435;SDS011;13363;52.772;-3.890;2023-10-09T11:20:43;2.40;;;2.30;;
25435;SDS011;13363;52.772;-3.890;2023-10-09T11:23:42;2.50;;;2.30;;
25435;SDS011;13363;52.772;-3.890;2023-10-09T11:26:22;2.92;;;2.30;;
25435;SDS011;13363;52.772;-3.890;2023-10-09T11:29:14;2.58;;;2.38;;
25435;SDS011;13363;52.772;-3.890;2023-10-09T11:32:03;2.75;;;2.17;;
25435;SDS011;13363;52.772;-3.890;2023-10-09T11:34:27;3.03;;;2.25;;
25435;SDS011;13363;52.772;-3.890;2023-10-09T11:37:27;2.20;;;2.10;;
25435;SDS011;13363;52.772;-3.890;2023-10-09T11:39:56;2.40;;;2.30;;
25435;SDS011;13363;52.772;-3.890;2023-10-09T11:42:24;2.95;;;2.38;;
25435;SDS011;13363;52.772;-3.890;2023-10-09T11:45:19;3.05;;;2.72;;
25435;SDS011;13363;52.772;-3.890;2023-10-09T11:47:46;2.78;;;2.58;;
25435;SDS011;13363;52.772;-3.890;2023-10-09T11:53:21;2.40;;;2.20;;
25435;SDS011;13363;52.772;-3.890;2023-10-09T11:55:47;2.50;;;2.30;;
25435;SDS011;13363;52.772;-3.890;2023-10-09T11:58:17;1.98;;;1.88;;
25435;SDS011;13363;52.772;-3.890;2023-10-09T12:00:56;2.75;;;2.50;;
25435;SDS011;13363;52.772;-3.890;2023-10-09T12:03:29;3.80;;;2.63;;
25435;SDS011;13363;52.772;-3.890;2023-10-09T12:05:59;2.45;;;2.25;;
25435;SDS011;13363;52.772;-3.890;2023-10-09T12:08:38;3.10;;;2.80;;
25435;SDS011;13363;52.772;-3.890;2023-10-09T12:11:07;2.22;;;2.13;;
25435;SDS011;13363;52.772;-3.890;2023-10-09T12:13:35;2.97;;;2.78;;
25435;SDS011;13363;52.772;-3.890;2023-10-09T12:16:03;4.30;;;2.58;;
25435;SDS011;13363;52.772;-3.890;2023-10-09T12:18:35;5.80;;;3.00;;
25435;SDS011;13363;52.772;-3.890;2023-10-09T12:21:04;5.07;;;3.00;;
25435;SDS011;13363;52.772;-3.890;2023-10-09T12:23:31;3.33;;;2.78;;
25435;SDS011;13363;52.772;-3.890;2023-10-09T12:26:04;4.13;;;2.88;;
25435;SDS011;13363;52.772;-3.890;2023-10-09T12:28:30;3.03;;;2.83;;
25435;SDS011;13363;52.772;-3.890;2023-10-09T12:30:59;3.10;;;2.90;;
25435;SDS011;13363;52.772;-3.890;2023-10-09T12:33:28;2.65;;;2.45;;
25435;SDS011;13363;52.772;-3.890;2023-10-09T12:35:55;4.20;;;2.88;;
25435;SDS011;13363;52.772;-3.890;2023-10-09T12:38:25;4.40;;;2.85;;
25435;SDS011;13363;52.772;-3.890;2023-10-09T12:41:04;5.05;;;2.80;;
25435;SDS011;13363;52.772;-3.890;2023-10-09T12:43:54;4.85;;;3.15;;
25435;SDS011;13363;52.772;-3.890;2023-10-09T12:46:22;3.88;;;3.05;;
25435;SDS011;13363;52.772;-3.890;2023-10-09T12:48:50;3.97;;;2.83;;
25435;SDS011;13363;52.772;-3.890;2023-10-09T12:51:19;4.50;;;2.90;;
25435;SDS011;13363;52.772;-3.890;2023-10-09T12:53:46;4.88;;;2.92;;
25435;SDS011;13363;52.772;-3.890;2023-10-09T12:56:25;7.57;;;3.75;;
25435;SDS011;13363;52.772;-3.890;2023-10-09T12:59:04;3.78;;;3.33;;
25435;SDS011;13363;52.772;-3.890;2023-10-09T13:01:30;6.60;;;3.73;;
25435;SDS011;13363;52.772;-3.890;2023-10-09T13:04:13;6.72;;;3.55;;
25435;SDS011;13363;52.772;-3.890;2023-10-09T13:06:43;4.10;;;3.60;;
25435;SDS011;13363;52.772;-3.890;2023-10-09T13:09:13;9.02;;;4.00;;
25435;SDS011;13363;52.772;-3.890;2023-10-09T13:11:40;3.33;;;2.97;;
25435;SDS011;13363;52.772;-3.890;2023-10-09T13:14:07;4.50;;;3.10;;
25435;SDS011;13363;52.772;-3.890;2023-10-09T13:16:44;4.68;;;3.20;;
25435;SDS011;13363;52.772;-3.890;2023-10-09T13:19:11;5.82;;;3.00;;
25435;SDS011;13363;52.772;-3.890;2023-10-09T13:21:37;4.35;;;3.50;;
25435;SDS011;13363;52.772;-3.890;2023-10-09T13:24:07;3.85;;;3.55;;
25435;SDS011;13363;52.772;-3.890;2023-10-09T13:26:41;5.33;;;3.40;;
25435;SDS011;13363;52.772;-3.890;2023-10-09T13:29:11;6.03;;;3.70;;
25435;SDS011;13363;52.772;-3.890;2023-10-09T13:31:37;5.05;;;3.65;;
25435;SDS011;13363;52.772;-3.890;2023-10-09T13:34:09;5.83;;;3.63;;
25435;SDS011;13363;52.772;-3.890;2023-10-09T13:36:40;9.57;;;3.53;;
25435;SDS011;13363;52.772;-3.890;2023-10-09T13:39:15;5.97;;;3.50;;
25435;SDS011;13363;52.772;-3.890;2023-10-09T13:41:55;3.63;;;3.33;;
25435;SDS011;13363;52.772;-3.890;2023-10-09T13:44:28;4.60;;;3.42;;
25435;SDS011;13363;52.772;-3.890;2023-10-09T13:47:02;6.93;;;3.42;;
25435;SDS011;13363;52.772;-3.890;2023-10-09T13:49:30;4.03;;;3.65;;
25435;SDS011;13363;52.772;-3.890;2023-10-09T13:51:57;5.70;;;3.58;;
25435;SDS011;13363;52.772;-3.890;2023-10-09T13:54:23;6.35;;;3.10;;
25435;SDS011;13363;52.772;-3.890;2023-10-09T13:57:00;4.45;;;3.55;;
25435;SDS011;13363;52.772;-3.890;2023-10-09T13:59:29;3.50;;;3.03;;
25435;SDS011;13363;52.772;-3.890;2023-10-09T14:01:55;5.40;;;3.95;;
25435;SDS011;13363;52.772;-3.890;2023-10-09T14:04:22;5.85;;;3.85;;
25435;SDS011;13363;52.772;-3.890;2023-10-09T14:06:49;3.28;;;3.00;;
25435;SDS011;13363;52.772;-3.890;2023-10-09T14:09:26;3.75;;;3.22;;
25435;SDS011;13363;52.772;-3.890;2023-10-09T14:12:19;6.30;;;3.55;;
25435;SDS011;13363;52.772;-3.890;2023-10-09T14:14:47;3.95;;;3.53;;
25435;SDS011;13363;52.772;-3.890;2023-10-09T14:17:14;8.05;;;4.03;;
25435;SDS011;13363;52.772;-3.890;2023-10-09T14:19:44;4.22;;;3.65;;
25435;SDS011;13363;52.772;-3.890;2023-10-09T14:22:17;5.70;;;3.10;;
25435;SDS011;13363;52.772;-3.890;2023-10-09T14:24:43;4.20;;;3.72;;
25435;SDS011;13363;52.772;-3.890;2023-10-09T14:27:12;4.00;;;3.25;;
25435;SDS011;13363;52.772;-3.890;2023-10-09T14:29:51;4.38;;;3.72;;
25435;SDS011;13363;52.772;-3.890;2023-10-09T14:32:21;7.65;;;3.22;;
25435;SDS011;13363;52.772;-3.890;2023-10-09T14:34:53;4.97;;;3.13;;
25435;SDS011;13363;52.772;-3.890;2023-10-09T14:37:20;5.63;;;3.20;;
25435;SDS011;13363;52.772;-3.890;2023-10-09T14:39:48;8.32;;;3.83;;
25435;SDS011;13363;52.772;-3.890;2023-10-09T14:42:14;4.78;;;3.22;;
25435;SDS011;13363;52.772;-3.890;2023-10-09T14:44:41;5.55;;;3.60;;
25435;SDS011;13363;52.772;-3.890;2023-10-09T14:47:10;5.00;;;3.70;;
25435;SDS011;13363;52.772;-3.890;2023-10-09T14:49:36;3.70;;;3.40;;
25435;SDS011;13363;52.772;-3.890;2023-10-09T14:52:09;4.40;;;3.50;;
25435;SDS011;13363;52.772;-3.890;2023-10-09T14:54:35;6.50;;;3.72;;
25435;SDS011;13363;52.772;-3.890;2023-10-09T14:57:03;6.20;;;3.87;;
25435;SDS011;13363;52.772;-3.890;2023-10-09T14:59:33;4.50;;;3.42;;
25435;SDS011;13363;52.772;-3.890;2023-10-09T15:02:00;4.87;;;3.40;;
25435;SDS011;13363;52.772;-3.890;2023-10-09T15:04:26;5.47;;;3.53;;
25435;SDS011;13363;52.772;-3.890;2023-10-09T15:06:54;7.17;;;4.20;;
25435;SDS011;13363;52.772;-3.890;2023-10-09T15:09:20;8.80;;;3.50;;
25435;SDS011;13363;52.772;-3.890;2023-10-09T15:11:54;3.90;;;3.60;;
25435;SDS011;13363;52.772;-3.890;2023-10-09T15:14:23;5.60;;;3.80;;
25435;SDS011;13363;52.772;-3.890;2023-10-09T15:16:50;7.00;;;3.90;;
25435;SDS011;13363;52.772;-3.890;2023-10-09T15:19:17;5.57;;;3.55;;
25435;SDS011;13363;52.772;-3.890;2023-10-09T15:21:44;6.50;;;3.63;;
25435;SDS011;13363;52.772;-3.890;2023-10-09T15:24:12;4.83;;;3.80;;
25435;SDS011;13363;52.772;-3.890;2023-10-09T15:26:47;4.43;;;3.73;;
25435;SDS011;13363;52.772;-3.890;2023-10-09T15:29:20;4.60;;;3.30;;
25435;SDS011;13363;52.772;-3.890;2023-10-09T15:31:55;5.60;;;3.50;;
25435;SDS011;13363;52.772;-3.890;2023-10-09T15:34:25;6.05;;;3.40;;
25435;SDS011;13363;52.772;-3.890;2023-10-09T15:36:52;4.07;;;3.78;;
25435;SDS011;13363;52.772;-3.890;2023-10-09T15:39:18;3.83;;;3.43;;
25435;SDS011;13363;52.772;-3.890;2023-10-09T15:41:45;4.20;;;3.70;;
25435;SDS011;13363;52.772;-3.890;2023-10-09T15:44:11;5.53;;;3.75;;
25435;SDS011;13363;52.772;-3.890;2023-10-09T15:46:41;7.57;;;4.18;;